Time;durP1;ratioP1;P1;durP2;ratioP2;P2;SDS_P1;SDS_P2;PMS_P1;PMS_P2;Temp;Humidity;BMP_temperature;BMP_pressure;BME280_temperature;BME280_humidity;BME280_pressure;Samples;Min_cycle;Max_cycle;Signal;HPM_P1;HPM_P2
2023/01/16 00:00:24;;;;;;;5.10;2.40;;;;;;;;;;5064360;28;20052;-78
2023/01/16 00:02:50;;;;;;;6.63;3.75;;;;;;;;;;5065852;28;20374;-78
2023/01/16 00:05:16;;;;;;;8.55;2.50;;;;;;;;;;5063247;28;20449;-78
2023/01/16 00:07:42;;;;;;;4.38;2.60;;;;;;;;;;5044924;28;20036;-78
2023/01/16 00:10:09;;;;;;;6.10;2.75;;;;;;;;;;5058838;28;20040;-78
2023/01/16 00:12:35;;;;;;;7.22;3.22;;;;;;;;;;5045369;28;20082;-78
2023/01/16 00:15:01;;;;;;;6.05;2.70;;;;;;;;;;5063400;28;20037;-78
2023/01/16 00:17:27;;;;;;;9.05;3.95;;;;;;;;;;5048210;28;20438;-78
2023/01/16 00:19:53;;;;;;;7.22;2.85;;;;;;;;;;5066486;28;20037;-78
2023/01/16 00:22:19;;;;;;;6.35;3.80;;;;;;;;;;5067255;28;20031;-78
2023/01/16 00:24:45;;;;;;;8.27;3.40;;;;;;;;;;5061245;28;20119;-79
2023/01/16 00:27:11;;;;;;;5.88;3.60;;;;;;;;;;5067094;28;20037;-78
2023/01/16 00:29:37;;;;;;;11.77;4.13;;;;;;;;;;5065547;28;20028;-77
2023/01/16 00:32:03;;;;;;;6.43;3.40;;;;;;;;;;5066852;28;20106;-78
2023/01/16 00:34:29;;;;;;;8.48;3.50;;;;;;;;;;5065072;28;20551;-78
2023/01/16 00:36:55;;;;;;;8.00;3.40;;;;;;;;;;5056853;28;20465;-78
2023/01/16 00:39:21;;;;;;;12.50;4.18;;;;;;;;;;5061597;28;20107;-78
2023/01/16 00:41:47;;;;;;;5.57;3.58;;;;;;;;;;5063885;28;20029;-78
2023/01/16 00:44:14;;;;;;;11.18;3.97;;;;;;;;;;5067950;28;20036;-78
2023/01/16 00:46:40;;;;;;;8.65;3.55;;;;;;;;;;5047212;28;20083;-78
2023/01/16 00:49:06;;;;;;;9.02;4.00;;;;;;;;;;5045797;28;20033;-77
2023/01/16 00:51:32;;;;;;;7.72;4.47;;;;;;;;;;5065020;28;20032;-78
2023/01/16 00:53:57;;;;;;;7.43;3.15;;;;;;;;;;5065934;28;20432;-78
2023/01/16 00:56:24;;;;;;;11.50;4.38;;;;;;;;;;5066933;28;20033;-78
2023/01/16 00:58:49;;;;;;;8.80;3.80;;;;;;;;;;5067387;28;20040;-78
2023/01/16 01:01:16;;;;;;;9.23;3.80;;;;;;;;;;5063282;28;20063;-78
2023/01/16 01:03:42;;;;;;;9.63;4.05;;;;;;;;;;5064213;28;20399;-79
2023/01/16 01:06:11;;;;;;;7.65;3.10;;;;;;;;;;5066447;28;20036;-78
2023/01/16 01:08:37;;;;;;;8.05;3.38;;;;;;;;;;5062130;28;20032;-79
2023/01/16 01:11:21;;;;;;;7.90;3.67;;;;;;;;;;5067213;28;20067;-79
2023/01/16 01:13:47;;;;;;;11.25;4.10;;;;;;;;;;5064674;28;20039;-78
2023/01/16 01:16:13;;;;;;;9.02;3.05;;;;;;;;;;5062962;28;20033;-79
2023/01/16 01:18:40;;;;;;;10.85;3.38;;;;;;;;;;5058785;28;20087;-78
2023/01/16 01:21:06;;;;;;;9.55;3.45;;;;;;;;;;5066217;28;20025;-78
2023/01/16 01:23:32;;;;;;;7.70;3.22;;;;;;;;;;5067246;28;20040;-79
2023/01/16 01:25:58;;;;;;;10.38;3.30;;;;;;;;;;5068800;28;20035;-78
2023/01/16 01:28:24;;;;;;;7.57;3.33;;;;;;;;;;5063488;28;20612;-78
2023/01/16 01:30:50;;;;;;;5.85;3.50;;;;;;;;;;5064816;28;20385;-78
2023/01/16 01:33:16;;;;;;;8.32;3.08;;;;;;;;;;5045434;28;20029;-78
2023/01/16 01:35:42;;;;;;;5.82;2.80;;;;;;;;;;5066978;28;20028;-77
2023/01/16 01:38:08;;;;;;;7.95;3.22;;;;;;;;;;5062471;28;20477;-77
2023/01/16 01:40:34;;;;;;;9.20;2.80;;;;;;;;;;5062036;28;20075;-77
2023/01/16 01:43:00;;;;;;;8.40;2.67;;;;;;;;;;5067355;28;20131;-78
2023/01/16 01:45:26;;;;;;;6.18;2.72;;;;;;;;;;5056411;28;20170;-77
2023/01/16 01:47:59;;;;;;;10.25;2.42;;;;;;;;;;5067188;28;20486;-78
2023/01/16 01:50:34;;;;;;;5.68;1.95;;;;;;;;;;5063314;28;20778;-78
2023/01/16 01:53:02;;;;;;;8.25;2.30;;;;;;;;;;5065062;28;20128;-78
2023/01/16 01:55:28;;;;;;;8.13;3.20;;;;;;;;;;5062139;28;20037;-77
2023/01/16 01:57:59;;;;;;;10.13;2.70;;;;;;;;;;5066851;28;20442;-81
2023/01/16 02:00:27;;;;;;;9.68;3.85;;;;;;;;;;5064097;28;20032;-78
2023/01/16 02:02:55;;;;;;;9.00;4.35;;;;;;;;;;5053684;28;20130;-78
2023/01/16 02:05:28;;;;;;;9.43;3.28;;;;;;;;;;5063045;28;20132;-81
2023/01/16 02:07:54;;;;;;;6.25;2.15;;;;;;;;;;5068325;28;20028;-81
2023/01/16 02:10:40;;;;;;;12.82;2.53;;;;;;;;;;5064774;28;20044;-77
2023/01/16 02:13:06;;;;;;;13.45;2.55;;;;;;;;;;5060691;28;20020;-78
2023/01/16 02:15:32;;;;;;;4.47;2.00;;;;;;;;;;5064795;28;20052;-77
2023/01/16 02:20:47;;;;;;;9.10;2.95;;;;;;;;;;5062972;28;20556;-76
2023/01/16 02:23:32;;;;;;;7.53;2.88;;;;;;;;;;5068086;28;20052;-76
2023/01/16 02:25:58;;;;;;;8.88;2.17;;;;;;;;;;5048140;28;20488;-77
2023/01/16 02:28:24;;;;;;;9.73;2.90;;;;;;;;;;5069205;28;20032;-77
2023/01/16 02:30:53;;;;;;;8.27;4.07;;;;;;;;;;5065339;28;20048;-77
2023/01/16 02:33:19;;;;;;;8.95;2.92;;;;;;;;;;5067942;28;20484;-77
2023/01/16 02:35:50;;;;;;;12.13;3.08;;;;;;;;;;5064602;28;20042;-76
2023/01/16 02:38:27;;;;;;;7.28;2.60;;;;;;;;;;5068264;28;20354;-77
2023/01/16 02:41:03;;;;;;;8.30;3.08;;;;;;;;;;5065450;28;20029;-77
2023/01/16 02:43:28;;;;;;;21.25;3.97;;;;;;;;;;5065951;28;20080;-77
2023/01/16 02:46:10;;;;;;;8.27;2.65;;;;;;;;;;5067117;28;20045;-77
2023/01/16 02:48:39;;;;;;;9.07;2.58;;;;;;;;;;5067758;28;20024;-77
2023/01/16 02:51:15;;;;;;;21.95;3.58;;;;;;;;;;5068674;28;20032;-77
2023/01/16 02:53:44;;;;;;;12.52;3.70;;;;;;;;;;5067284;28;20078;-77
2023/01/16 02:56:13;;;;;;;7.68;3.40;;;;;;;;;;5061194;28;20045;-77
2023/01/16 02:58:41;;;;;;;5.72;2.38;;;;;;;;;;5067238;28;20047;-77
2023/01/16 03:01:07;;;;;;;4.95;2.33;;;;;;;;;;5065167;28;20021;-77
2023/01/16 03:03:41;;;;;;;11.52;2.47;;;;;;;;;;5050253;28;20031;-77
2023/01/16 03:06:28;;;;;;;6.40;2.53;;;;;;;;;;5067497;28;20021;-79
2023/01/16 03:09:00;;;;;;;12.80;2.67;;;;;;;;;;5066959;28;20392;-78
2023/01/16 03:11:28;;;;;;;8.70;3.25;;;;;;;;;;5063619;28;20050;-77
2023/01/16 03:14:00;;;;;;;10.30;3.33;;;;;;;;;;5064689;28;20086;-77
2023/01/16 03:16:29;;;;;;;8.23;3.10;;;;;;;;;;5065600;28;20056;-79
2023/01/16 03:19:14;;;;;;;6.15;3.15;;;;;;;;;;5066922;28;20048;-77
2023/01/16 03:21:43;;;;;;;9.80;3.65;;;;;;;;;;5059195;28;20108;-77
2023/01/16 03:24:09;;;;;;;6.25;2.97;;;;;;;;;;5062251;28;20028;-78
2023/01/16 03:26:41;;;;;;;9.15;2.90;;;;;;;;;;5067394;28;20448;-77
2023/01/16 03:29:07;;;;;;;9.55;3.50;;;;;;;;;;5066873;28;20028;-78
2023/01/16 03:31:35;;;;;;;10.98;3.35;;;;;;;;;;5047208;28;20040;-76
2023/01/16 03:34:21;;;;;;;10.13;3.88;;;;;;;;;;5065463;28;20066;-79
2023/01/16 03:36:59;;;;;;;10.80;4.30;;;;;;;;;;5062121;28;20024;-77
2023/01/16 03:39:27;;;;;;;7.65;3.60;;;;;;;;;;5061772;28;20036;-76
2023/01/16 03:41:54;;;;;;;9.35;4.45;;;;;;;;;;5065943;28;20021;-77
2023/01/16 03:44:29;;;;;;;10.45;4.32;;;;;;;;;;5065165;28;20023;-77
2023/01/16 03:46:56;;;;;;;12.13;4.90;;;;;;;;;;5043458;28;20383;-78
2023/01/16 03:49:27;;;;;;;11.23;4.32;;;;;;;;;;5068533;28;20028;-76
2023/01/16 03:51:55;;;;;;;11.88;4.60;;;;;;;;;;5051346;28;20028;-77
2023/01/16 03:54:30;;;;;;;17.23;5.82;;;;;;;;;;5066915;28;20101;-77
2023/01/16 03:57:07;;;;;;;11.48;5.03;;;;;;;;;;5060613;28;20040;-77
2023/01/16 03:59:33;;;;;;;9.90;5.43;;;;;;;;;;5066149;28;20378;-77
2023/01/16 04:02:14;;;;;;;14.15;5.95;;;;;;;;;;5063674;28;20024;-77
2023/01/16 04:05:07;;;;;;;11.35;5.93;;;;;;;;;;5062414;28;20036;-77
2023/01/16 04:07:37;;;;;;;10.90;5.90;;;;;;;;;;5042490;28;20064;-77
2023/01/16 04:10:08;;;;;;;10.45;6.65;;;;;;;;;;5065614;28;20512;-77
2023/01/16 04:12:41;;;;;;;10.60;5.80;;;;;;;;;;5062533;28;20028;-78
2023/01/16 04:15:08;;;;;;;12.55;7.15;;;;;;;;;;5046145;28;20024;-77
2023/01/16 04:17:38;;;;;;;8.60;5.72;;;;;;;;;;5063796;28;20040;-77
2023/01/16 04:20:05;;;;;;;12.60;6.75;;;;;;;;;;5067533;28;20104;-76
2023/01/16 04:22:31;;;;;;;13.20;6.97;;;;;;;;;;5066444;28;20473;-76
2023/01/16 04:24:59;;;;;;;13.32;7.43;;;;;;;;;;5062372;28;20029;-77
2023/01/16 04:27:25;;;;;;;13.75;6.85;;;;;;;;;;5059942;28;20033;-76
2023/01/16 04:29:51;;;;;;;18.02;8.65;;;;;;;;;;5060488;28;20040;-77
2023/01/16 04:32:18;;;;;;;14.00;8.10;;;;;;;;;;5058545;28;20427;-76
2023/01/16 04:34:44;;;;;;;19.65;8.25;;;;;;;;;;5061295;28;20029;-77
2023/01/16 04:37:12;;;;;;;14.60;8.48;;;;;;;;;;5061761;28;20041;-76
2023/01/16 04:39:40;;;;;;;14.93;8.77;;;;;;;;;;5065033;28;20043;-76
2023/01/16 04:42:06;;;;;;;26.27;9.88;;;;;;;;;;5065665;28;20550;-76
2023/01/16 04:44:32;;;;;;;13.85;8.95;;;;;;;;;;5071641;28;20051;-77
2023/01/16 04:46:58;;;;;;;18.20;8.90;;;;;;;;;;5061018;28;20440;-77
2023/01/16 04:49:24;;;;;;;13.95;9.10;;;;;;;;;;5061438;28;20036;-77
2023/01/16 04:51:50;;;;;;;18.75;9.55;;;;;;;;;;5069083;28;20027;-77
2023/01/16 04:54:17;;;;;;;14.55;9.07;;;;;;;;;;5066800;28;20028;-77
2023/01/16 04:56:43;;;;;;;45.13;10.98;;;;;;;;;;5065256;28;20024;-77
2023/01/16 04:59:10;;;;;;;16.38;10.27;;;;;;;;;;5064986;28;20031;-77
2023/01/16 05:01:37;;;;;;;22.95;11.48;;;;;;;;;;5046638;28;20037;-77
2023/01/16 05:04:04;;;;;;;18.13;11.68;;;;;;;;;;5066616;28;20036;-76
2023/01/16 05:06:30;;;;;;;20.70;10.52;;;;;;;;;;5063986;28;20495;-77
2023/01/16 05:08:56;;;;;;;16.58;9.23;;;;;;;;;;5048935;28;20045;-78
2023/01/16 05:11:22;;;;;;;20.50;9.82;;;;;;;;;;5059160;28;20174;-77
2023/01/16 05:13:48;;;;;;;16.10;9.93;;;;;;;;;;5068174;28;20028;-77
2023/01/16 05:16:14;;;;;;;21.02;10.43;;;;;;;;;;5066003;28;20044;-76
2023/01/16 05:18:40;;;;;;;22.25;11.90;;;;;;;;;;5064391;28;20385;-76
2023/01/16 05:21:06;;;;;;;23.50;11.75;;;;;;;;;;5061482;28;20441;-77
2023/01/16 05:23:34;;;;;;;18.67;10.82;;;;;;;;;;5062011;28;20028;-77
2023/01/16 05:26:00;;;;;;;22.88;12.43;;;;;;;;;;5055712;28;20081;-77
2023/01/16 05:28:26;;;;;;;20.65;11.57;;;;;;;;;;5059928;28;20083;-76
2023/01/16 05:30:52;;;;;;;24.30;12.07;;;;;;;;;;5061351;28;20036;-77
2023/01/16 05:33:19;;;;;;;19.50;12.15;;;;;;;;;;5060175;28;20036;-76
2023/01/16 05:35:46;;;;;;;21.42;11.48;;;;;;;;;;5063942;28;20028;-77
2023/01/16 05:38:12;;;;;;;19.25;12.07;;;;;;;;;;5063499;28;20035;-77
2023/01/16 05:40:38;;;;;;;24.95;12.93;;;;;;;;;;5059978;28;20032;-76
2023/01/16 05:43:04;;;;;;;28.70;13.38;;;;;;;;;;5061471;28;20417;-76
2023/01/16 05:45:31;;;;;;;38.75;15.10;;;;;;;;;;5064641;28;20178;-76
2023/01/16 05:47:57;;;;;;;24.63;13.05;;;;;;;;;;5062386;28;20032;-76
2023/01/16 05:50:23;;;;;;;22.50;13.18;;;;;;;;;;5064236;28;20032;-76
2023/01/16 05:52:49;;;;;;;32.92;13.48;;;;;;;;;;5064133;28;20481;-76
2023/01/16 05:55:16;;;;;;;22.00;13.45;;;;;;;;;;5064513;28;20091;-76
2023/01/16 05:57:42;;;;;;;26.52;14.48;;;;;;;;;;5046442;28;20485;-77
2023/01/16 06:00:08;;;;;;;23.98;13.85;;;;;;;;;;5062799;28;20036;-76
2023/01/16 06:02:34;;;;;;;26.02;14.95;;;;;;;;;;5057465;28;20109;-77
2023/01/16 06:05:01;;;;;;;29.00;13.85;;;;;;;;;;5062221;28;20500;-77
2023/01/16 06:07:27;;;;;;;25.95;14.10;;;;;;;;;;5062177;28;20381;-77
2023/01/16 06:09:53;;;;;;;20.05;12.85;;;;;;;;;;5067208;28;20057;-77
2023/01/16 06:12:19;;;;;;;23.67;14.20;;;;;;;;;;5063759;28;20043;-77
2023/01/16 06:14:46;;;;;;;32.25;14.02;;;;;;;;;;5047958;28;20052;-77
2023/01/16 06:17:15;;;;;;;22.30;13.35;;;;;;;;;;5063850;28;20045;-77
2023/01/16 06:19:41;;;;;;;27.75;13.27;;;;;;;;;;5065747;28;20071;-76
2023/01/16 06:22:08;;;;;;;25.00;13.52;;;;;;;;;;5064105;28;20036;-77
2023/01/16 06:24:34;;;;;;;21.90;12.18;;;;;;;;;;5068436;28;20017;-77
2023/01/16 06:27:00;;;;;;;23.67;12.93;;;;;;;;;;5064620;28;20037;-77
2023/01/16 06:29:26;;;;;;;20.98;12.25;;;;;;;;;;5062552;28;20481;-77
2023/01/16 06:31:52;;;;;;;26.88;13.52;;;;;;;;;;5060159;28;20107;-77
2023/01/16 06:34:18;;;;;;;31.42;12.80;;;;;;;;;;5065130;28;20094;-75
2023/01/16 06:36:47;;;;;;;23.60;13.20;;;;;;;;;;5060589;28;20028;-78
2023/01/16 06:39:13;;;;;;;21.10;13.07;;;;;;;;;;5063878;28;20436;-79
2023/01/16 06:41:39;;;;;;;17.65;11.75;;;;;;;;;;5063985;28;20020;-77
2023/01/16 06:44:06;;;;;;;25.48;12.15;;;;;;;;;;5062809;28;20052;-77
2023/01/16 06:46:32;;;;;;;28.50;11.93;;;;;;;;;;5058211;28;20023;-74
2023/01/16 06:48:58;;;;;;;27.27;14.30;;;;;;;;;;5051546;28;20051;-74
2023/01/16 06:51:24;;;;;;;19.95;10.93;;;;;;;;;;5061987;28;20477;-76
2023/01/16 06:53:50;;;;;;;22.98;10.82;;;;;;;;;;5061782;28;20492;-78
2023/01/16 06:56:18;;;;;;;19.17;10.13;;;;;;;;;;5063586;28;20508;-75
2023/01/16 06:58:45;;;;;;;13.35;8.20;;;;;;;;;;5069069;28;20040;-75
2023/01/16 07:01:11;;;;;;;14.45;8.38;;;;;;;;;;5071882;28;20097;-76
2023/01/16 07:03:37;;;;;;;14.02;8.30;;;;;;;;;;5059734;28;21086;-79
2023/01/16 07:06:03;;;;;;;11.98;7.35;;;;;;;;;;5070618;28;20393;-79
2023/01/16 07:08:30;;;;;;;13.90;7.55;;;;;;;;;;5066254;28;20044;-80
2023/01/16 07:10:59;;;;;;;16.35;7.32;;;;;;;;;;5047259;28;20039;-76
2023/01/16 07:13:28;;;;;;;13.65;7.05;;;;;;;;;;5063499;28;20059;-78
2023/01/16 07:24:07;;;;;;;18.92;8.02;;;;;;;;;;5063238;28;20122;-80
2023/01/16 07:26:35;;;;;;;12.02;5.80;;;;;;;;;;5067479;28;20468;-77
2023/01/16 07:29:02;;;;;;;16.38;9.00;;;;;;;;;;5067106;28;20103;-77
2023/01/16 07:31:28;;;;;;;10.57;5.35;;;;;;;;;;5048752;28;20453;-77
2023/01/16 07:33:54;;;;;;;14.38;6.38;;;;;;;;;;5065370;28;20031;-77
2023/01/16 07:36:20;;;;;;;15.20;5.32;;;;;;;;;;5030306;28;20077;-76
2023/01/16 07:38:46;;;;;;;15.40;5.47;;;;;;;;;;5066106;28;20056;-77
2023/01/16 07:41:13;;;;;;;9.40;4.88;;;;;;;;;;5062782;28;20059;-76
2023/01/16 07:43:40;;;;;;;14.52;5.60;;;;;;;;;;5046693;28;20045;-75
2023/01/16 07:46:06;;;;;;;15.07;5.57;;;;;;;;;;5041217;28;20063;-76
2023/01/16 07:48:32;;;;;;;13.88;4.68;;;;;;;;;;5044595;28;20044;-75
2023/01/16 07:50:59;;;;;;;8.75;4.80;;;;;;;;;;5041792;28;20033;-77
2023/01/16 07:53:26;;;;;;;14.23;5.20;;;;;;;;;;5046223;28;20096;-76
2023/01/16 07:55:54;;;;;;;10.00;5.22;;;;;;;;;;5046101;28;20029;-75
2023/01/16 07:58:23;;;;;;;14.00;4.90;;;;;;;;;;5047994;28;20575;-76
2023/01/16 08:00:52;;;;;;;12.00;5.13;;;;;;;;;;5044676;28;20047;-76
2023/01/16 08:03:18;;;;;;;13.43;5.00;;;;;;;;;;5050218;28;20028;-76
2023/01/16 08:05:44;;;;;;;10.88;4.47;;;;;;;;;;5048840;28;20123;-73
2023/01/16 08:08:11;;;;;;;10.88;4.22;;;;;;;;;;5046473;28;20021;-78
2023/01/16 08:10:37;;;;;;;14.60;4.78;;;;;;;;;;5031672;28;20025;-76
2023/01/16 08:13:03;;;;;;;10.93;4.75;;;;;;;;;;5041333;28;20041;-76
2023/01/16 08:15:29;;;;;;;15.32;4.82;;;;;;;;;;5035921;28;20079;-75
2023/01/16 08:17:55;;;;;;;11.27;4.35;;;;;;;;;;5042831;28;20066;-78
2023/01/16 08:20:22;;;;;;;11.77;4.13;;;;;;;;;;5042803;28;20382;-77
2023/01/16 08:22:52;;;;;;;9.27;4.07;;;;;;;;;;5047628;28;20040;-77
2023/01/16 08:25:22;;;;;;;10.40;3.75;;;;;;;;;;5049186;28;20033;-76
2023/01/16 08:27:48;;;;;;;30.92;11.15;;;;;;;;;;5044761;28;20033;-76
2023/01/16 08:30:15;;;;;;;26.10;11.48;;;;;;;;;;5041439;28;20033;-76
2023/01/16 08:32:41;;;;;;;13.73;3.88;;;;;;;;;;5036455;28;20036;-77
2023/01/16 08:35:08;;;;;;;8.00;3.55;;;;;;;;;;5039400;28;20179;-76
2023/01/16 08:37:34;;;;;;;5.47;3.28;;;;;;;;;;5048364;28;20040;-80
2023/01/16 08:40:00;;;;;;;7.22;3.80;;;;;;;;;;5045653;28;20029;-77
2023/01/16 08:53:28;;;;;;;9.95;4.57;;;;;;;;;;5060765;28;20055;-76
2023/01/16 08:55:54;;;;;;;8.00;4.38;;;;;;;;;;5066444;28;20021;-77
2023/01/16 08:58:21;;;;;;;9.85;4.32;;;;;;;;;;5050265;28;20060;-76
2023/01/16 09:00:47;;;;;;;9.57;3.80;;;;;;;;;;5062112;28;20033;-78
2023/01/16 09:03:14;;;;;;;10.55;5.38;;;;;;;;;;5037493;28;20083;-78
2023/01/16 09:05:40;;;;;;;10.80;4.45;;;;;;;;;;5065707;28;20097;-79
2023/01/16 09:08:06;;;;;;;19.23;4.93;;;;;;;;;;5049312;28;20035;-79
2023/01/16 09:10:32;;;;;;;6.25;3.67;;;;;;;;;;5067943;28;20021;-78
2023/01/16 09:15:43;;;;;;;13.35;4.05;;;;;;;;;;5063565;28;20040;-78
2023/01/16 09:18:09;;;;;;;7.88;3.72;;;;;;;;;;5052556;28;20032;-77
2023/01/16 09:20:35;;;;;;;13.63;6.53;;;;;;;;;;5040981;28;20388;-78
2023/01/16 09:23:02;;;;;;;20.05;9.30;;;;;;;;;;5058221;28;20028;-79
2023/01/16 09:25:29;;;;;;;8.70;3.83;;;;;;;;;;5060079;28;20233;-76
2023/01/16 09:27:55;;;;;;;8.70;3.85;;;;;;;;;;5061787;28;20071;-80
2023/01/16 09:30:22;;;;;;;10.48;5.57;;;;;;;;;;5064333;28;20040;-79
2023/01/16 09:32:48;;;;;;;10.73;4.03;;;;;;;;;;5065380;28;20062;-79
2023/01/16 09:35:14;;;;;;;13.70;5.57;;;;;;;;;;5066453;28;20094;-79
2023/01/16 09:37:42;;;;;;;8.10;3.80;;;;;;;;;;5064680;28;20025;-78
2023/01/16 09:40:35;;;;;;;13.15;4.28;;;;;;;;;;5065818;28;20100;-77
2023/01/16 09:45:56;;;;;;;8.07;4.07;;;;;;;;;;5068341;28;20103;-77
2023/01/16 09:48:25;;;;;;;11.90;3.75;;;;;;;;;;5065217;28;20067;-77
2023/01/16 09:50:53;;;;;;;13.18;4.07;;;;;;;;;;5057325;28;20029;-79
2023/01/16 09:59:16;;;;;;;8.02;3.65;;;;;;;;;;5059908;28;20047;-80
2023/01/16 10:01:43;;;;;;;9.18;4.35;;;;;;;;;;5017938;28;20501;-80
2023/01/16 10:04:12;;;;;;;14.00;4.10;;;;;;;;;;5059554;28;20485;-80
2023/01/16 10:06:47;;;;;;;10.57;4.32;;;;;;;;;;5064243;28;20021;-81
2023/01/16 10:09:13;;;;;;;7.03;4.00;;;;;;;;;;5065380;28;20028;-79
2023/01/16 10:11:52;;;;;;;5.72;3.47;;;;;;;;;;5063618;28;20078;-79
2023/01/16 10:14:26;;;;;;;11.77;3.97;;;;;;;;;;5062228;28;20043;-78
2023/01/16 10:17:31;;;;;;;11.05;4.78;;;;;;;;;;5061635;28;20029;-78
2023/01/16 10:20:00;;;;;;;8.13;4.35;;;;;;;;;;4986736;28;20045;-78
2023/01/16 10:22:26;;;;;;;8.88;3.50;;;;;;;;;;4984499;28;20077;-78
2023/01/16 10:24:55;;;;;;;14.18;4.35;;;;;;;;;;5027386;28;20035;-78
2023/01/16 10:27:39;;;;;;;14.45;4.57;;;;;;;;;;5054484;28;20040;-78
2023/01/16 10:30:14;;;;;;;6.03;3.35;;;;;;;;;;5050026;28;20031;-78
2023/01/16 10:32:43;;;;;;;13.82;3.72;;;;;;;;;;5048985;28;20385;-79
2023/01/16 10:35:24;;;;;;;6.53;2.95;;;;;;;;;;5068498;28;20024;-79
2023/01/16 10:37:51;;;;;;;8.40;2.78;;;;;;;;;;5069664;28;20090;-80
2023/01/16 10:40:26;;;;;;;5.95;2.67;;;;;;;;;;5064821;28;20687;-80
2023/01/16 10:49:25;;;;;;;6.60;2.60;;;;;;;;;;5063671;28;20036;-80
2023/01/16 10:51:32;;;;;;;5.47;2.40;;;;;;;;;;5066325;28;20035;-80
2023/01/16 10:53:58;;;;;;;6.80;1.38;;;;;;;;;;5047322;28;20041;-80
2023/01/16 10:56:25;;;;;;;4.00;1.83;;;;;;;;;;5066956;28;20119;-80
2023/01/16 10:58:51;;;;;;;7.07;2.20;;;;;;;;;;5068110;28;20047;-79
2023/01/16 11:01:21;;;;;;;4.20;1.85;;;;;;;;;;5065248;28;20024;-79
2023/01/16 11:03:59;;;;;;;3.30;1.25;;;;;;;;;;5065258;28;20465;-80
2023/01/16 11:06:27;;;;;;;1.98;1.55;;;;;;;;;;5073024;28;20025;-81
2023/01/16 11:09:01;;;;;;;1.63;1.15;;;;;;;;;;5069011;28;20048;-80
2023/01/16 11:20:05;;;;;;;4.45;1.55;;;;;;;;;;5057187;28;20599;-77
2023/01/16 11:22:31;;;;;;;2.95;1.23;;;;;;;;;;5070102;28;20037;-79
2023/01/16 11:24:58;;;;;;;2.03;1.10;;;;;;;;;;5070491;28;20469;-78
2023/01/16 11:27:25;;;;;;;3.33;1.00;;;;;;;;;;5078921;28;20037;-79
2023/01/16 11:29:57;;;;;;;3.15;0.93;;;;;;;;;;5072037;28;20032;-81
2023/01/16 11:32:24;;;;;;;1.55;1.20;;;;;;;;;;5071946;28;20028;-83
2023/01/16 11:34:53;;;;;;;1.60;0.80;;;;;;;;;;5061321;28;20363;-84
2023/01/16 11:37:19;;;;;;;1.10;1.00;;;;;;;;;;5069318;28;20389;-83
2023/01/16 11:39:52;;;;;;;1.35;0.82;;;;;;;;;;5071773;28;20013;-84
2023/01/16 11:48:02;;;;;;;2.05;1.02;;;;;;;;;;5054708;28;20116;-83
2023/01/16 11:50:36;;;;;;;3.03;1.40;;;;;;;;;;5063396;28;20021;-82
2023/01/16 11:53:02;;;;;;;1.60;1.10;;;;;;;;;;5049123;28;20503;-80
2023/01/16 11:55:39;;;;;;;1.90;1.10;;;;;;;;;;5051581;28;20031;-84
2023/01/16 11:58:09;;;;;;;3.03;1.13;;;;;;;;;;5075016;28;20036;-82
2023/01/16 12:00:51;;;;;;;2.25;1.08;;;;;;;;;;5065717;28;20032;-84
2023/01/16 12:03:20;;;;;;;2.55;1.05;;;;;;;;;;5073299;28;20025;-83
2023/01/16 12:05:56;;;;;;;1.10;0.93;;;;;;;;;;5063143;28;20039;-82
2023/01/16 12:08:38;;;;;;;2.20;1.63;;;;;;;;;;5062647;28;20028;-84
2023/01/16 12:11:07;;;;;;;1.17;1.00;;;;;;;;;;5064215;28;20017;-82
2023/01/16 12:16:50;;;;;;;3.40;1.40;;;;;;;;;;5054421;28;20405;-83
2023/01/16 12:19:22;;;;;;;4.22;1.40;;;;;;;;;;5067233;28;20032;-82
2023/01/16 12:21:57;;;;;;;2.50;1.60;;;;;;;;;;5070199;28;20366;-82
2023/01/16 12:24:30;;;;;;;4.13;1.50;;;;;;;;;;5071490;28;20032;-82
2023/01/16 12:27:14;;;;;;;4.47;1.60;;;;;;;;;;5057889;28;20036;-82
2023/01/16 12:30:06;;;;;;;3.67;1.70;;;;;;;;;;5054771;28;20025;-83
2023/01/16 12:32:53;;;;;;;1.70;1.50;;;;;;;;;;5056515;28;20032;-83
2023/01/16 12:35:19;;;;;;;1.70;1.60;;;;;;;;;;5059084;28;20032;-81
2023/01/16 12:38:08;;;;;;;3.47;1.40;;;;;;;;;;5062043;28;22614;-83
2023/01/16 12:40:46;;;;;;;3.45;1.60;;;;;;;;;;5040259;28;20033;-82
2023/01/16 12:43:20;;;;;;;2.88;2.38;;;;;;;;;;5038937;28;20037;-84
2023/01/16 12:45:55;;;;;;;4.13;2.28;;;;;;;;;;5045748;28;20040;-83
2023/01/16 12:48:39;;;;;;;4.15;2.80;;;;;;;;;;5058850;28;20587;-82
2023/01/16 12:51:24;;;;;;;7.13;3.78;;;;;;;;;;5062733;28;20029;-82
2023/01/16 12:53:53;;;;;;;5.65;3.90;;;;;;;;;;5063647;28;20060;-83
2023/01/16 12:56:19;;;;;;;6.43;3.25;;;;;;;;;;5057480;28;20031;-83
2023/01/16 12:58:54;;;;;;;5.80;3.45;;;;;;;;;;5045638;28;20118;-82
2023/01/16 13:01:25;;;;;;;4.93;2.75;;;;;;;;;;5038120;28;20029;-82
2023/01/16 13:04:03;;;;;;;6.68;2.83;;;;;;;;;;5061621;28;20078;-82
2023/01/16 13:06:32;;;;;;;3.50;2.28;;;;;;;;;;5061064;28;20108;-81
2023/01/16 13:09:05;;;;;;;3.80;2.78;;;;;;;;;;5061558;28;20051;-81
2023/01/16 13:14:19;;;;;;;4.45;2.95;;;;;;;;;;5059101;28;20046;-81
2023/01/16 13:16:57;;;;;;;3.47;2.47;;;;;;;;;;5061826;28;20051;-81
2023/01/16 13:19:25;;;;;;;7.20;3.15;;;;;;;;;;5059110;28;20045;-83
2023/01/16 13:22:07;;;;;;;4.97;2.50;;;;;;;;;;5048860;28;20032;-82
2023/01/16 13:24:34;;;;;;;4.88;2.78;;;;;;;;;;5063649;28;20036;-81
2023/01/16 13:27:02;;;;;;;6.65;3.28;;;;;;;;;;5066242;28;20485;-81
2023/01/16 13:29:34;;;;;;;4.70;3.05;;;;;;;;;;5071037;28;20031;-82
2023/01/16 13:32:04;;;;;;;4.57;2.90;;;;;;;;;;5066603;28;20025;-81
2023/01/16 13:34:31;;;;;;;6.45;2.75;;;;;;;;;;5062523;28;20321;-82
2023/01/16 13:37:00;;;;;;;4.90;2.55;;;;;;;;;;5060547;28;20029;-81
2023/01/16 13:39:45;;;;;;;3.50;2.75;;;;;;;;;;5062334;28;20040;-83
2023/01/16 13:42:12;;;;;;;5.88;3.22;;;;;;;;;;5054328;28;20385;-83
2023/01/16 13:47:30;;;;;;;10.77;5.57;;;;;;;;;;5070932;28;20047;-82
2023/01/16 13:50:08;;;;;;;5.93;3.60;;;;;;;;;;5075248;28;20025;-84
2023/01/16 13:52:34;;;;;;;4.80;2.83;;;;;;;;;;5054636;28;20028;-81
2023/01/16 13:55:05;;;;;;;11.32;4.68;;;;;;;;;;5066758;28;20040;-84
2023/01/16 13:57:32;;;;;;;4.00;3.22;;;;;;;;;;5074008;28;20033;-86
2023/01/16 14:00:00;;;;;;;3.78;3.05;;;;;;;;;;5053237;28;20052;-86
2023/01/16 14:02:39;;;;;;;5.18;3.30;;;;;;;;;;5054993;28;20028;-79
2023/01/16 14:05:08;;;;;;;12.82;5.30;;;;;;;;;;5056998;28;20032;-80
2023/01/16 14:10:42;;;;;;;4.95;3.85;;;;;;;;;;5062971;28;20424;-80
2023/01/16 14:13:15;;;;;;;9.32;3.58;;;;;;;;;;5061933;28;20033;-83
2023/01/16 14:18:43;;;;;;;5.03;3.95;;;;;;;;;;5078167;28;20087;-84
2023/01/16 14:21:23;;;;;;;5.05;3.70;;;;;;;;;;5077710;28;20029;-85
2023/01/16 14:24:02;;;;;;;5.25;4.00;;;;;;;;;;5063490;28;20024;-82
2023/01/16 14:26:34;;;;;;;6.70;4.60;;;;;;;;;;5071110;28;20041;-84
2023/01/16 14:29:01;;;;;;;8.73;4.37;;;;;;;;;;5063914;28;20086;-83
2023/01/16 14:31:29;;;;;;;6.43;3.60;;;;;;;;;;5071365;28;20894;-84
2023/01/16 14:33:56;;;;;;;6.63;3.63;;;;;;;;;;5068221;28;20527;-85
2023/01/16 14:36:24;;;;;;;4.22;3.38;;;;;;;;;;5069293;28;20020;-84
2023/01/16 14:38:52;;;;;;;4.65;3.33;;;;;;;;;;5062753;28;20068;-85
2023/01/16 14:55:41;;;;;;;6.18;4.22;;;;;;;;;;5064592;28;20081;-82
2023/01/16 14:58:09;;;;;;;7.50;5.13;;;;;;;;;;5062505;28;20028;-83
2023/01/16 15:00:37;;;;;;;7.75;4.95;;;;;;;;;;5068999;28;20025;-83
2023/01/16 15:03:08;;;;;;;9.60;6.80;;;;;;;;;;5054541;28;20029;-83
2023/01/16 15:05:52;;;;;;;11.00;5.88;;;;;;;;;;5059991;28;20024;-80
2023/01/16 15:08:24;;;;;;;9.32;5.25;;;;;;;;;;5067400;28;20112;-83
2023/01/16 15:10:54;;;;;;;8.35;5.00;;;;;;;;;;5049739;28;20043;-84
2023/01/16 15:13:20;;;;;;;6.10;4.50;;;;;;;;;;5055537;28;20415;-85
2023/01/16 15:15:53;;;;;;;6.70;4.38;;;;;;;;;;5073050;28;20070;-81
2023/01/16 15:23:46;;;;;;;;;;;;;;;;;;5070248;28;20039;-83
2023/01/16 15:26:21;;;;;;;11.65;8.38;;;;;;;;;;5048132;28;19952;-79
2023/01/16 15:29:00;;;;;;;8.57;5.03;;;;;;;;;;5068476;28;20488;-84
2023/01/16 15:31:31;;;;;;;7.68;3.90;;;;;;;;;;5059544;28;20051;-83
2023/01/16 15:33:58;;;;;;;4.88;3.83;;;;;;;;;;5061250;28;20023;-81
2023/01/16 15:36:26;;;;;;;7.85;3.90;;;;;;;;;;5045999;28;20028;-81
2023/01/16 15:38:56;;;;;;;5.65;4.40;;;;;;;;;;5061462;28;20055;-82
2023/01/16 15:46:32;;;;;;;5.60;4.43;;;;;;;;;;5062192;28;20038;-82
2023/01/16 15:47:03;;;;;;;5.68;4.15;;;;;;;;;;5064069;28;20031;-80
2023/01/16 15:49:29;;;;;;;8.63;5.47;;;;;;;;;;5058884;28;20040;-81
2023/01/16 15:51:55;;;;;;;6.57;4.63;;;;;;;;;;5061948;28;20047;-81
2023/01/16 15:54:22;;;;;;;6.38;4.57;;;;;;;;;;5066659;28;20028;-83
2023/01/16 15:56:49;;;;;;;7.07;4.38;;;;;;;;;;5058961;28;20044;-82
2023/01/16 15:59:26;;;;;;;6.78;5.00;;;;;;;;;;5067317;28;20389;-83
2023/01/16 16:01:52;;;;;;;8.35;6.18;;;;;;;;;;5064209;28;20444;-82
2023/01/16 16:04:19;;;;;;;7.57;5.75;;;;;;;;;;5061440;28;20036;-81
2023/01/16 16:06:46;;;;;;;8.35;5.25;;;;;;;;;;5064305;28;20017;-82
2023/01/16 16:09:18;;;;;;;12.20;7.03;;;;;;;;;;5055303;28;20351;-82
2023/01/16 16:11:55;;;;;;;12.98;6.25;;;;;;;;;;5064825;28;20092;-81
2023/01/16 16:20:25;;;;;;;5.75;5.00;;;;;;;;;;5066278;28;20042;-81
2023/01/16 16:22:52;;;;;;;14.95;7.15;;;;;;;;;;5064176;28;20037;-79
2023/01/16 16:25:33;;;;;;;7.18;5.97;;;;;;;;;;5071078;28;20029;-83